Ford Heights, Illinois
Current Conditions -  °F | °C
As of 7:35 AM on Friday 28 Nov 2014 (Local Time) from KIGQ Reporting Station
Overcast Overcast  
Wind Chill: -11°   Ceiling: 6000
Heat Index: -6°   Visibility: 10mi
Dew Point: -9°   Wind: 8mph
Humidity: 78%   Direction: 170°S
Pressure: 30.3"   Gusts: NA
Location:  41.5054°N, 87.5907°W
Report Text: KIGQ 281335Z AUTO 17007KT 10SM SCT047 OVC060 M06/M09 A3030 RMK AO2 T10601092
Loading
Personal Weather Stations






























Interactive Weather Map New forecast layout! Learn more

10-Day Weather Forecast

Advertisements
Track Severe Weather on mobile